sensor_id;sensor_type;location;lat;lon;timestamp;pressure;altitude;pressure_sealevel;temperature;humidity
11349;BME280;5729;43.570;27.826;2022-10-31T00:02:19;99369.22;;;16.56;100.00
11349;BME280;5729;43.570;27.826;2022-10-31T00:04:44;99361.81;;;16.53;100.00
11349;BME280;5729;43.570;27.826;2022-10-31T00:07:10;99355.59;;;16.53;100.00
11349;BME280;5729;43.570;27.826;2022-10-31T00:09:35;99354.84;;;16.52;100.00
11349;BME280;5729;43.570;27.826;2022-10-31T00:12:00;99365.72;;;16.52;100.00
11349;BME280;5729;43.570;27.826;2022-10-31T00:14:26;99357.56;;;16.52;100.00
11349;BME280;5729;43.570;27.826;2022-10-31T00:16:51;99360.66;;;16.51;100.00
11349;BME280;5729;43.570;27.826;2022-10-31T00:19:17;99343.94;;;16.38;100.00
11349;BME280;5729;43.570;27.826;2022-10-31T00:21:42;99368.03;;;16.50;100.00
11349;BME280;5729;43.570;27.826;2022-10-31T00:24:08;99354.03;;;16.48;100.00
11349;BME280;5729;43.570;27.826;2022-10-31T00:26:33;99354.84;;;16.45;100.00
11349;BME280;5729;43.570;27.826;2022-10-31T00:29:00;99359.47;;;16.48;100.00
11349;BME280;5729;43.570;27.826;2022-10-31T00:31:25;99354.81;;;16.49;100.00
11349;BME280;5729;43.570;27.826;2022-10-31T00:33:51;99359.09;;;16.50;100.00
11349;BME280;5729;43.570;27.826;2022-10-31T00:36:18;99356.75;;;16.48;100.00
11349;BME280;5729;43.570;27.826;2022-10-31T00:38:45;99352.88;;;16.49;100.00
11349;BME280;5729;43.570;27.826;2022-10-31T00:41:12;99358.75;;;16.48;100.00
11349;BME280;5729;43.570;27.826;2022-10-31T00:43:38;99361.06;;;16.46;100.00
11349;BME280;5729;43.570;27.826;2022-10-31T00:46:03;99341.25;;;16.34;100.00
11349;BME280;5729;43.570;27.826;2022-10-31T00:48:30;99354.03;;;16.38;100.00
11349;BME280;5729;43.570;27.826;2022-10-31T00:50:55;99363.78;;;16.42;100.00
11349;BME280;5729;43.570;27.826;2022-10-31T00:53:21;99358.31;;;16.42;100.00
11349;BME280;5729;43.570;27.826;2022-10-31T00:55:47;99347.84;;;16.33;100.00
11349;BME280;5729;43.570;27.826;2022-10-31T00:58:12;99350.56;;;16.33;100.00
11349;BME280;5729;43.570;27.826;2022-10-31T01:00:38;99364.94;;;16.34;100.00
11349;BME280;5729;43.570;27.826;2022-10-31T01:03:03;99360.66;;;16.33;100.00
11349;BME280;5729;43.570;27.826;2022-10-31T01:05:29;99362.63;;;16.36;100.00
11349;BME280;5729;43.570;27.826;2022-10-31T01:07:54;99361.44;;;16.33;100.00
11349;BME280;5729;43.570;27.826;2022-10-31T01:10:20;99368.41;;;16.27;100.00
11349;BME280;5729;43.570;27.826;2022-10-31T01:12:47;99364.16;;;16.30;100.00
11349;BME280;5729;43.570;27.826;2022-10-31T01:15:16;99363.38;;;16.22;100.00
11349;BME280;5729;43.570;27.826;2022-10-31T01:17:42;99361.41;;;16.16;100.00
11349;BME280;5729;43.570;27.826;2022-10-31T01:20:09;99350.91;;;16.07;100.00
11349;BME280;5729;43.570;27.826;2022-10-31T01:22:35;99359.47;;;16.13;100.00
11349;BME280;5729;43.570;27.826;2022-10-31T01:25:01;99361.03;;;16.14;100.00
11349;BME280;5729;43.570;27.826;2022-10-31T01:27:26;99350.16;;;16.14;100.00
11349;BME280;5729;43.570;27.826;2022-10-31T01:29:52;99351.69;;;16.15;100.00
11349;BME280;5729;43.570;27.826;2022-10-31T01:32:17;99350.94;;;16.18;100.00
11349;BME280;5729;43.570;27.826;2022-10-31T01:34:43;99352.88;;;16.17;100.00
11349;BME280;5729;43.570;27.826;2022-10-31T01:37:08;99353.66;;;16.18;100.00
11349;BME280;5729;43.570;27.826;2022-10-31T01:39:33;99352.47;;;16.19;100.00
11349;BME280;5729;43.570;27.826;2022-10-31T01:41:59;99336.19;;;16.22;100.00
11349;BME280;5729;43.570;27.826;2022-10-31T01:46:55;99336.16;;;16.19;100.00
11349;BME280;5729;43.570;27.826;2022-10-31T01:49:28;99333.84;;;16.21;100.00
11349;BME280;5729;43.570;27.826;2022-10-31T01:54:39;99323.72;;;16.14;100.00
11349;BME280;5729;43.570;27.826;2022-10-31T01:57:07;99337.72;;;16.20;100.00
11349;BME280;5729;43.570;27.826;2022-10-31T01:59:35;99337.72;;;16.20;100.00
11349;BME280;5729;43.570;27.826;2022-10-31T02:02:05;99332.66;;;16.15;100.00
11349;BME280;5729;43.570;27.826;2022-10-31T02:04:31;99344.31;;;16.19;100.00
11349;BME280;5729;43.570;27.826;2022-10-31T02:07:10;99343.94;;;16.20;100.00
11349;BME280;5729;43.570;27.826;2022-10-31T02:09:38;99345.47;;;16.18;100.00
11349;BME280;5729;43.570;27.826;2022-10-31T02:12:05;99353.25;;;16.16;100.00
11349;BME280;5729;43.570;27.826;2022-10-31T02:14:31;99350.94;;;16.11;100.00
11349;BME280;5729;43.570;27.826;2022-10-31T02:16:57;99348.59;;;16.02;100.00
11349;BME280;5729;43.570;27.826;2022-10-31T02:19:51;99354.00;;;15.95;100.00
11349;BME280;5729;43.570;27.826;2022-10-31T02:28:39;99353.56;;;15.68;100.00
11349;BME280;5729;43.570;27.826;2022-10-31T02:31:41;99360.09;;;15.56;100.00
11349;BME280;5729;43.570;27.826;2022-10-31T02:37:03;99368.53;;;15.41;100.00
11349;BME280;5729;43.570;27.826;2022-10-31T02:42:07;99380.13;;;15.31;100.00
11349;BME280;5729;43.570;27.826;2022-10-31T02:44:48;99376.19;;;15.24;100.00
11349;BME280;5729;43.570;27.826;2022-10-31T02:47:17;99370.41;;;15.22;100.00
11349;BME280;5729;43.570;27.826;2022-10-31T02:52:56;99381.56;;;15.10;100.00
11349;BME280;5729;43.570;27.826;2022-10-31T02:57:48;99384.28;;;15.14;100.00
11349;BME280;5729;43.570;27.826;2022-10-31T03:00:14;99385.84;;;15.15;100.00
11349;BME280;5729;43.570;27.826;2022-10-31T03:10:42;99389.47;;;15.33;100.00
11349;BME280;5729;43.570;27.826;2022-10-31T03:15:39;99393.34;;;15.39;100.00
11349;BME280;5729;43.570;27.826;2022-10-31T03:18:09;99391.84;;;15.45;100.00
11349;BME280;5729;43.570;27.826;2022-10-31T03:20:58;99391.84;;;15.49;100.00
11349;BME280;5729;43.570;27.826;2022-10-31T03:23:25;99395.75;;;15.51;100.00
11349;BME280;5729;43.570;27.826;2022-10-31T03:25:53;99403.53;;;15.53;100.00
11349;BME280;5729;43.570;27.826;2022-10-31T03:28:25;99396.97;;;15.57;100.00
11349;BME280;5729;43.570;27.826;2022-10-31T03:30:54;99407.84;;;15.61;100.00
11349;BME280;5729;43.570;27.826;2022-10-31T03:33:26;99398.91;;;15.60;100.00
11349;BME280;5729;43.570;27.826;2022-10-31T03:35:55;99398.19;;;15.67;100.00
11349;BME280;5729;43.570;27.826;2022-10-31T03:38:23;99405.97;;;15.69;100.00
11349;BME280;5729;43.570;27.826;2022-10-31T03:40:51;99412.53;;;15.71;100.00
11349;BME280;5729;43.570;27.826;2022-10-31T03:43:26;99410.22;;;15.70;100.00
11349;BME280;5729;43.570;27.826;2022-10-31T03:45:53;99413.69;;;15.70;100.00
11349;BME280;5729;43.570;27.826;2022-10-31T03:48:20;99417.56;;;15.69;100.00
11349;BME280;5729;43.570;27.826;2022-10-31T03:53:39;99428.69;;;15.46;100.00
11349;BME280;5729;43.570;27.826;2022-10-31T03:56:23;99434.06;;;15.32;100.00
11349;BME280;5729;43.570;27.826;2022-10-31T03:58:58;99437.50;;;15.25;100.00
11349;BME280;5729;43.570;27.826;2022-10-31T04:01:27;99446.03;;;15.20;100.00
11349;BME280;5729;43.570;27.826;2022-10-31T04:03:56;99435.88;;;15.10;100.00
11349;BME280;5729;43.570;27.826;2022-10-31T04:06:23;99455.25;;;15.12;100.00
11349;BME280;5729;43.570;27.826;2022-10-31T04:08:54;99461.47;;;15.13;100.00
11349;BME280;5729;43.570;27.826;2022-10-31T04:11:25;99457.59;;;15.10;100.00
11349;BME280;5729;43.570;27.826;2022-10-31T04:13:53;99464.16;;;15.09;100.00
11349;BME280;5729;43.570;27.826;2022-10-31T04:16:20;99464.16;;;15.09;100.00
11349;BME280;5729;43.570;27.826;2022-10-31T04:18:47;99465.34;;;15.12;100.00
11349;BME280;5729;43.570;27.826;2022-10-31T04:21:12;99469.59;;;15.13;100.00
11349;BME280;5729;43.570;27.826;2022-10-31T04:23:38;99471.16;;;15.14;100.00
11349;BME280;5729;43.570;27.826;2022-10-31T04:26:03;99472.34;;;15.16;100.00
11349;BME280;5729;43.570;27.826;2022-10-31T04:28:28;99483.28;;;15.23;100.00
11349;BME280;5729;43.570;27.826;2022-10-31T04:30:54;99470.91;;;15.30;100.00
11349;BME280;5729;43.570;27.826;2022-10-31T04:33:19;99469.00;;;15.34;100.00
11349;BME280;5729;43.570;27.826;2022-10-31T04:35:45;99474.47;;;15.41;100.00
11349;BME280;5729;43.570;27.826;2022-10-31T04:38:10;99477.22;;;15.44;100.00
11349;BME280;5729;43.570;27.826;2022-10-31T04:40:36;99478.03;;;15.52;100.00
11349;BME280;5729;43.570;27.826;2022-10-31T04:43:01;99471.09;;;15.54;100.00
11349;BME280;5729;43.570;27.826;2022-10-31T04:45:27;99473.44;;;15.56;100.00
11349;BME280;5729;43.570;27.826;2022-10-31T04:47:52;99476.94;;;15.60;100.00
11349;BME280;5729;43.570;27.826;2022-10-31T04:50:18;99465.31;;;15.63;100.00
11349;BME280;5729;43.570;27.826;2022-10-31T04:52:44;99474.25;;;15.67;100.00
11349;BME280;5729;43.570;27.826;2022-10-31T04:55:11;99468.84;;;15.67;100.00
11349;BME280;5729;43.570;27.826;2022-10-31T04:57:41;99476.59;;;15.69;100.00
11349;BME280;5729;43.570;27.826;2022-10-31T05:00:07;99467.28;;;15.66;100.00
11349;BME280;5729;43.570;27.826;2022-10-31T05:02:33;99481.25;;;15.72;100.00
11349;BME280;5729;43.570;27.826;2022-10-31T05:04:59;99484.41;;;15.77;100.00
11349;BME280;5729;43.570;27.826;2022-10-31T05:07:24;99477.81;;;15.78;100.00
11349;BME280;5729;43.570;27.826;2022-10-31T05:09:49;99481.31;;;15.82;100.00
11349;BME280;5729;43.570;27.826;2022-10-31T05:12:15;99484.03;;;15.82;100.00
11349;BME280;5729;43.570;27.826;2022-10-31T05:14:40;99497.66;;;15.86;100.00
11349;BME280;5729;43.570;27.826;2022-10-31T05:17:06;99499.22;;;15.90;100.00
11349;BME280;5729;43.570;27.826;2022-10-31T05:19:31;99503.09;;;15.89;100.00
11349;BME280;5729;43.570;27.826;2022-10-31T05:21:56;99511.63;;;15.91;100.00
11349;BME280;5729;43.570;27.826;2022-10-31T05:24:22;99508.19;;;15.98;100.00
11349;BME280;5729;43.570;27.826;2022-10-31T05:26:48;99510.94;;;16.02;100.00
11349;BME280;5729;43.570;27.826;2022-10-31T05:29:14;99506.66;;;16.01;100.00
11349;BME280;5729;43.570;27.826;2022-10-31T05:31:39;99513.66;;;16.02;100.00
11349;BME280;5729;43.570;27.826;2022-10-31T05:34:05;99517.53;;;16.04;100.00
11349;BME280;5729;43.570;27.826;2022-10-31T05:36:30;99515.59;;;16.05;100.00
11349;BME280;5729;43.570;27.826;2022-10-31T05:38:56;99521.81;;;16.09;100.00
11349;BME280;5729;43.570;27.826;2022-10-31T05:41:21;99531.16;;;16.08;100.00
11349;BME280;5729;43.570;27.826;2022-10-31T05:43:47;99524.91;;;16.07;100.00
11349;BME280;5729;43.570;27.826;2022-10-31T05:46:12;99535.00;;;16.00;100.00
11349;BME280;5729;43.570;27.826;2022-10-31T05:48:37;99535.72;;;15.89;100.00
11349;BME280;5729;43.570;27.826;2022-10-31T05:51:03;99542.66;;;15.80;100.00
11349;BME280;5729;43.570;27.826;2022-10-31T05:53:28;99551.19;;;15.78;100.00
11349;BME280;5729;43.570;27.826;2022-10-31T05:55:54;99548.47;;;15.78;100.00
11349;BME280;5729;43.570;27.826;2022-10-31T05:58:19;99548.44;;;15.75;100.00
11349;BME280;5729;43.570;27.826;2022-10-31T06:00:45;99538.78;;;15.84;100.00
11349;BME280;5729;43.570;27.826;2022-10-31T06:03:10;99547.38;;;15.90;100.00
11349;BME280;5729;43.570;27.826;2022-10-31T06:05:36;99535.72;;;15.93;100.00
11349;BME280;5729;43.570;27.826;2022-10-31T06:08:01;99544.38;;;16.16;100.00
11349;BME280;5729;43.570;27.826;2022-10-31T06:10:27;99540.53;;;16.28;100.00
11349;BME280;5729;43.570;27.826;2022-10-31T06:12:52;99555.44;;;16.62;100.00
11349;BME280;5729;43.570;27.826;2022-10-31T06:15:18;99559.38;;;16.83;100.00
11349;BME280;5729;43.570;27.826;2022-10-31T06:17:43;99559.41;;;16.90;100.00
11349;BME280;5729;43.570;27.826;2022-10-31T06:20:09;99562.16;;;17.08;100.00
11349;BME280;5729;43.570;27.826;2022-10-31T06:22:35;99570.31;;;17.18;100.00
11349;BME280;5729;43.570;27.826;2022-10-31T06:25:00;99570.34;;;17.22;100.00
11349;BME280;5729;43.570;27.826;2022-10-31T06:27:26;99555.94;;;17.25;100.00
11349;BME280;5729;43.570;27.826;2022-10-31T06:29:51;99566.44;;;17.33;100.00
11349;BME280;5729;43.570;27.826;2022-10-31T06:32:17;99562.53;;;17.41;100.00
11349;BME280;5729;43.570;27.826;2022-10-31T06:34:43;99571.13;;;17.47;100.00
11349;BME280;5729;43.570;27.826;2022-10-31T06:37:11;99573.44;;;17.56;100.00
11349;BME280;5729;43.570;27.826;2022-10-31T06:39:36;99568.41;;;17.65;100.00
11349;BME280;5729;43.570;27.826;2022-10-31T06:42:03;99574.25;;;17.70;100.00
11349;BME280;5729;43.570;27.826;2022-10-31T06:44:28;99578.13;;;17.66;100.00
11349;BME280;5729;43.570;27.826;2022-10-31T06:46:54;99575.00;;;17.60;100.00
11349;BME280;5729;43.570;27.826;2022-10-31T06:49:19;99567.19;;;17.52;100.00
11349;BME280;5729;43.570;27.826;2022-10-31T06:51:48;99567.22;;;17.48;100.00
11349;BME280;5729;43.570;27.826;2022-10-31T06:54:14;99582.78;;;17.44;100.00
11349;BME280;5729;43.570;27.826;2022-10-31T06:56:40;99576.19;;;17.34;100.00
11349;BME280;5729;43.570;27.826;2022-10-31T06:59:06;99568.00;;;17.24;100.00
11349;BME280;5729;43.570;27.826;2022-10-31T07:01:31;99576.56;;;17.29;100.00
11349;BME280;5729;43.570;27.826;2022-10-31T07:03:56;99579.66;;;17.28;100.00
11349;BME280;5729;43.570;27.826;2022-10-31T07:06:22;99575.00;;;17.28;100.00
11349;BME280;5729;43.570;27.826;2022-10-31T07:08:47;99582.81;;;17.26;100.00
11349;BME280;5729;43.570;27.826;2022-10-31T07:11:13;99581.25;;;17.36;100.00
11349;BME280;5729;43.570;27.826;2022-10-31T07:13:38;99581.22;;;17.22;100.00
11349;BME280;5729;43.570;27.826;2022-10-31T07:16:05;99589.41;;;17.36;100.00
11349;BME280;5729;43.570;27.826;2022-10-31T07:18:32;99587.84;;;17.35;100.00
11349;BME280;5729;43.570;27.826;2022-10-31T07:20:58;99583.19;;;17.42;100.00
11349;BME280;5729;43.570;27.826;2022-10-31T07:23:23;99595.25;;;17.41;100.00
11349;BME280;5729;43.570;27.826;2022-10-31T07:25:54;99595.63;;;17.43;100.00
11349;BME280;5729;43.570;27.826;2022-10-31T07:28:20;99592.53;;;17.63;100.00
11349;BME280;5729;43.570;27.826;2022-10-31T07:30:50;99582.78;;;17.76;100.00
11349;BME280;5729;43.570;27.826;2022-10-31T07:33:15;99582.69;;;18.19;100.00
11349;BME280;5729;43.570;27.826;2022-10-31T07:35:41;99581.41;;;20.07;100.00
11349;BME280;5729;43.570;27.826;2022-10-31T07:38:08;99584.22;;;22.90;100.00
11349;BME280;5729;43.570;27.826;2022-10-31T07:40:34;99577.75;;;25.28;87.58
11349;BME280;5729;43.570;27.826;2022-10-31T07:42:59;99577.50;;;27.59;60.92
11349;BME280;5729;43.570;27.826;2022-10-31T07:45:25;99577.69;;;28.19;54.46
11349;BME280;5729;43.570;27.826;2022-10-31T07:47:52;99570.81;;;30.32;48.06
11349;BME280;5729;43.570;27.826;2022-10-31T07:50:23;99573.34;;;31.10;42.20
11349;BME280;5729;43.570;27.826;2022-10-31T07:53:01;99572.88;;;31.72;42.43
11349;BME280;5729;43.570;27.826;2022-10-31T07:55:28;99576.34;;;32.65;38.09
11349;BME280;5729;43.570;27.826;2022-10-31T07:58:02;99562.88;;;32.63;37.73
11349;BME280;5729;43.570;27.826;2022-10-31T08:00:28;99562.69;;;32.35;37.33
11349;BME280;5729;43.570;27.826;2022-10-31T08:03:01;99564.47;;;33.01;36.66
11349;BME280;5729;43.570;27.826;2022-10-31T08:05:27;99580.81;;;33.19;36.41
11349;BME280;5729;43.570;27.826;2022-10-31T08:07:52;99566.13;;;32.88;35.45
11349;BME280;5729;43.570;27.826;2022-10-31T08:10:18;99573.28;;;33.31;36.43
11349;BME280;5729;43.570;27.826;2022-10-31T08:12:44;99574.13;;;33.54;35.16
11349;BME280;5729;43.570;27.826;2022-10-31T08:15:09;99582.69;;;33.28;35.19
11349;BME280;5729;43.570;27.826;2022-10-31T08:17:35;99575.88;;;33.40;33.85
11349;BME280;5729;43.570;27.826;2022-10-31T08:20:02;99578.69;;;33.03;34.63
11349;BME280;5729;43.570;27.826;2022-10-31T08:22:27;99579.50;;;32.72;34.27
11349;BME280;5729;43.570;27.826;2022-10-31T08:24:53;99575.47;;;32.47;36.71
11349;BME280;5729;43.570;27.826;2022-10-31T08:27:18;99565.69;;;32.32;35.75
11349;BME280;5729;43.570;27.826;2022-10-31T08:29:44;99583.50;;;32.14;35.42
11349;BME280;5729;43.570;27.826;2022-10-31T08:32:09;99575.41;;;32.16;36.05
11349;BME280;5729;43.570;27.826;2022-10-31T08:34:35;99579.41;;;32.35;35.73
11349;BME280;5729;43.570;27.826;2022-10-31T08:37:00;99577.44;;;31.95;35.98
11349;BME280;5729;43.570;27.826;2022-10-31T08:39:25;99587.50;;;32.33;35.67
11349;BME280;5729;43.570;27.826;2022-10-31T08:41:51;99579.88;;;32.91;36.02
11349;BME280;5729;43.570;27.826;2022-10-31T08:44:16;99584.22;;;33.29;34.48
11349;BME280;5729;43.570;27.826;2022-10-31T08:46:42;99569.56;;;33.51;33.86
11349;BME280;5729;43.570;27.826;2022-10-31T08:49:07;99580.59;;;33.77;32.98
11349;BME280;5729;43.570;27.826;2022-10-31T08:51:33;99577.81;;;33.77;32.19
11349;BME280;5729;43.570;27.826;2022-10-31T08:53:59;99581.13;;;33.86;32.12
11349;BME280;5729;43.570;27.826;2022-10-31T08:56:24;99577.97;;;33.51;32.64
11349;BME280;5729;43.570;27.826;2022-10-31T08:58:49;99579.75;;;34.41;31.64
11349;BME280;5729;43.570;27.826;2022-10-31T09:01:19;99580.97;;;35.18;30.55
11349;BME280;5729;43.570;27.826;2022-10-31T09:03:44;99582.75;;;35.21;30.22
11349;BME280;5729;43.570;27.826;2022-10-31T09:06:10;99574.59;;;35.12;30.65
11349;BME280;5729;43.570;27.826;2022-10-31T09:08:36;99577.19;;;34.54;30.35
11349;BME280;5729;43.570;27.826;2022-10-31T09:11:02;99580.41;;;35.42;29.31
11349;BME280;5729;43.570;27.826;2022-10-31T09:13:28;99582.72;;;35.44;29.54
11349;BME280;5729;43.570;27.826;2022-10-31T09:15:56;99575.91;;;36.27;27.96
11349;BME280;5729;43.570;27.826;2022-10-31T09:18:22;99572.75;;;36.71;27.76
11349;BME280;5729;43.570;27.826;2022-10-31T09:20:49;99568.41;;;37.25;27.23
11349;BME280;5729;43.570;27.826;2022-10-31T09:23:17;99573.25;;;36.40;27.49
11349;BME280;5729;43.570;27.826;2022-10-31T09:25:44;99574.88;;;37.63;26.79
11349;BME280;5729;43.570;27.826;2022-10-31T09:28:12;99567.34;;;38.40;25.45
11349;BME280;5729;43.570;27.826;2022-10-31T09:30:38;99564.03;;;39.00;25.04
11349;BME280;5729;43.570;27.826;2022-10-31T09:33:06;99563.13;;;39.71;23.83
11349;BME280;5729;43.570;27.826;2022-10-31T09:35:32;99552.88;;;39.21;23.55
11349;BME280;5729;43.570;27.826;2022-10-31T09:37:59;99563.25;;;38.86;24.15
11349;BME280;5729;43.570;27.826;2022-10-31T09:40:35;99557.00;;;39.20;23.31
11349;BME280;5729;43.570;27.826;2022-10-31T09:45:33;99566.06;;;39.66;22.84
11349;BME280;5729;43.570;27.826;2022-10-31T09:51:03;99553.63;;;39.21;23.11
11349;BME280;5729;43.570;27.826;2022-10-31T09:53:40;99560.47;;;39.26;23.19
11349;BME280;5729;43.570;27.826;2022-10-31T09:56:14;99560.47;;;38.23;24.19
11349;BME280;5729;43.570;27.826;2022-10-31T09:58:43;99551.94;;;37.10;24.98
11349;BME280;5729;43.570;27.826;2022-10-31T10:01:21;99551.63;;;35.94;26.13
11349;BME280;5729;43.570;27.826;2022-10-31T10:03:53;99559.28;;;36.64;25.78
11349;BME280;5729;43.570;27.826;2022-10-31T10:06:28;99555.09;;;36.77;25.67
11349;BME280;5729;43.570;27.826;2022-10-31T10:08:56;99545.31;;;37.07;24.76
11349;BME280;5729;43.570;27.826;2022-10-31T10:22:31;99543.25;;;35.25;26.77
11349;BME280;5729;43.570;27.826;2022-10-31T10:25:12;99546.19;;;36.01;26.08
11349;BME280;5729;43.570;27.826;2022-10-31T10:28:10;99533.94;;;37.43;24.61
11349;BME280;5729;43.570;27.826;2022-10-31T10:30:40;99542.41;;;37.81;24.45
11349;BME280;5729;43.570;27.826;2022-10-31T10:33:19;99542.31;;;37.86;23.17
11349;BME280;5729;43.570;27.826;2022-10-31T10:35:58;99539.78;;;37.02;24.54
11349;BME280;5729;43.570;27.826;2022-10-31T10:41:19;99535.38;;;38.38;23.60
11349;BME280;5729;43.570;27.826;2022-10-31T10:43:45;99528.38;;;39.16;22.55
11349;BME280;5729;43.570;27.826;2022-10-31T10:46:18;99524.38;;;38.08;23.10
11349;BME280;5729;43.570;27.826;2022-10-31T10:49:22;99538.09;;;38.89;22.05
11349;BME280;5729;43.570;27.826;2022-10-31T10:58:01;99524.38;;;36.24;23.96
11349;BME280;5729;43.570;27.826;2022-10-31T11:00:44;99518.59;;;35.76;24.66
11349;BME280;5729;43.570;27.826;2022-10-31T11:03:15;99524.16;;;36.52;24.21
11349;BME280;5729;43.570;27.826;2022-10-31T11:05:57;99507.81;;;36.81;23.74
11349;BME280;5729;43.570;27.826;2022-10-31T11:08:35;99517.34;;;37.21;23.23
11349;BME280;5729;43.570;27.826;2022-10-31T11:13:30;99513.13;;;37.89;22.30
11349;BME280;5729;43.570;27.826;2022-10-31T11:15:58;99505.66;;;37.54;22.65
11349;BME280;5729;43.570;27.826;2022-10-31T11:18:27;99502.50;;;38.46;22.36
11349;BME280;5729;43.570;27.826;2022-10-31T11:20:55;99506.88;;;38.60;22.04
11349;BME280;5729;43.570;27.826;2022-10-31T11:23:24;99499.06;;;38.66;22.08
11349;BME280;5729;43.570;27.826;2022-10-31T11:25:51;99504.75;;;37.84;22.48
11349;BME280;5729;43.570;27.826;2022-10-31T11:28:18;99504.78;;;36.79;22.62
11349;BME280;5729;43.570;27.826;2022-10-31T11:31:12;99503.81;;;36.95;22.96
11349;BME280;5729;43.570;27.826;2022-10-31T11:33:48;99507.22;;;36.88;23.71
11349;BME280;5729;43.570;27.826;2022-10-31T11:36:25;99489.09;;;37.32;23.24
11349;BME280;5729;43.570;27.826;2022-10-31T11:38:52;99496.25;;;37.08;23.15
11349;BME280;5729;43.570;27.826;2022-10-31T11:41:41;99490.78;;;36.97;23.65
11349;BME280;5729;43.570;27.826;2022-10-31T11:44:25;99496.03;;;35.46;24.89
11349;BME280;5729;43.570;27.826;2022-10-31T11:46:54;99496.78;;;34.16;26.08
11349;BME280;5729;43.570;27.826;2022-10-31T11:49:29;99492.44;;;32.74;28.07
11349;BME280;5729;43.570;27.826;2022-10-31T11:51:58;99497.34;;;32.47;28.38
11349;BME280;5729;43.570;27.826;2022-10-31T11:54:30;99491.50;;;32.83;27.91
11349;BME280;5729;43.570;27.826;2022-10-31T11:56:57;99490.72;;;33.30;27.71
11349;BME280;5729;43.570;27.826;2022-10-31T11:59:31;99502.28;;;33.71;27.68
11349;BME280;5729;43.570;27.826;2022-10-31T12:01:59;99495.00;;;34.07;26.88
11349;BME280;5729;43.570;27.826;2022-10-31T12:07:17;99502.81;;;33.75;26.66
11349;BME280;5729;43.570;27.826;2022-10-31T12:09:43;99498.97;;;33.62;27.88
11349;BME280;5729;43.570;27.826;2022-10-31T12:12:18;99499.56;;;34.10;26.78
11349;BME280;5729;43.570;27.826;2022-10-31T12:29:26;99497.81;;;32.15;28.98
11349;BME280;5729;43.570;27.826;2022-10-31T12:32:08;99492.09;;;32.24;28.41
11349;BME280;5729;43.570;27.826;2022-10-31T12:42:38;99502.34;;;30.06;31.81
11349;BME280;5729;43.570;27.826;2022-10-31T12:51:00;99501.88;;;30.86;30.93
11349;BME280;5729;43.570;27.826;2022-10-31T12:53:47;99494.63;;;30.94;31.05
11349;BME280;5729;43.570;27.826;2022-10-31T13:07:15;99512.88;;;27.80;35.73
11349;BME280;5729;43.570;27.826;2022-10-31T13:09:54;99513.16;;;27.36;36.07
11349;BME280;5729;43.570;27.826;2022-10-31T13:12:23;99508.16;;;26.95;37.52
11349;BME280;5729;43.570;27.826;2022-10-31T13:14:52;99514.97;;;26.63;38.31
11349;BME280;5729;43.570;27.826;2022-10-31T13:20:45;99478.16;;;25.70;40.21
11349;BME280;5729;43.570;27.826;2022-10-31T13:22:47;99506.19;;;25.33;41.85
11349;BME280;5729;43.570;27.826;2022-10-31T13:25:15;99512.56;;;25.43;41.24
11349;BME280;5729;43.570;27.826;2022-10-31T13:27:53;99514.72;;;25.26;42.19
11349;BME280;5729;43.570;27.826;2022-10-31T13:30:21;99517.50;;;25.14;44.04
11349;BME280;5729;43.570;27.826;2022-10-31T13:35:25;99523.72;;;25.05;44.74
11349;BME280;5729;43.570;27.826;2022-10-31T13:38:32;99518.03;;;24.83;45.76
11349;BME280;5729;43.570;27.826;2022-10-31T13:46:22;99522.34;;;24.34;48.96
11349;BME280;5729;43.570;27.826;2022-10-31T13:48:48;99530.19;;;24.06;50.58
11349;BME280;5729;43.570;27.826;2022-10-31T13:51:24;99533.97;;;23.83;52.98
11349;BME280;5729;43.570;27.826;2022-10-31T13:56:24;99522.84;;;23.42;54.86
11349;BME280;5729;43.570;27.826;2022-10-31T13:59:23;99531.97;;;23.39;55.93
11349;BME280;5729;43.570;27.826;2022-10-31T14:02:00;99531.09;;;23.26;57.11
11349;BME280;5729;43.570;27.826;2022-10-31T14:04:37;99530.00;;;23.07;57.52
11349;BME280;5729;43.570;27.826;2022-10-31T14:07:09;99534.56;;;22.97;59.81
11349;BME280;5729;43.570;27.826;2022-10-31T14:12:11;99543.41;;;22.89;61.35
11349;BME280;5729;43.570;27.826;2022-10-31T14:14:52;99542.09;;;22.77;62.66
11349;BME280;5729;43.570;27.826;2022-10-31T14:17:23;99546.44;;;22.74;63.05
11349;BME280;5729;43.570;27.826;2022-10-31T14:22:38;99540.22;;;22.54;64.47
11349;BME280;5729;43.570;27.826;2022-10-31T14:27:51;99544.59;;;22.52;66.19
11349;BME280;5729;43.570;27.826;2022-10-31T14:30:23;99546.63;;;22.48;67.52
11349;BME280;5729;43.570;27.826;2022-10-31T14:32:52;99552.28;;;22.40;68.04
11349;BME280;5729;43.570;27.826;2022-10-31T14:35:20;99544.44;;;22.23;67.99
11349;BME280;5729;43.570;27.826;2022-10-31T14:40:48;99540.13;;;22.02;70.16
11349;BME280;5729;43.570;27.826;2022-10-31T14:48:52;99552.56;;;21.87;73.29
11349;BME280;5729;43.570;27.826;2022-10-31T14:51:35;99556.59;;;21.79;73.83
11349;BME280;5729;43.570;27.826;2022-10-31T14:54:01;99553.66;;;21.69;75.35
11349;BME280;5729;43.570;27.826;2022-10-31T14:56:29;99549.44;;;21.65;75.99
11349;BME280;5729;43.570;27.826;2022-10-31T14:59:02;99553.41;;;21.60;76.34
11349;BME280;5729;43.570;27.826;2022-10-31T15:01:30;99564.44;;;21.57;77.75
11349;BME280;5729;43.570;27.826;2022-10-31T15:04:23;99557.97;;;21.47;78.18
11349;BME280;5729;43.570;27.826;2022-10-31T15:06:54;99565.50;;;21.43;79.13
11349;BME280;5729;43.570;27.826;2022-10-31T15:09:31;99565.53;;;21.40;80.11
11349;BME280;5729;43.570;27.826;2022-10-31T15:12:01;99569.09;;;21.36;80.00
11349;BME280;5729;43.570;27.826;2022-10-31T15:14:41;99568.91;;;21.24;81.91
11349;BME280;5729;43.570;27.826;2022-10-31T15:17:10;99569.41;;;21.15;82.65
11349;BME280;5729;43.570;27.826;2022-10-31T15:19:37;99571.88;;;21.10;83.37
11349;BME280;5729;43.570;27.826;2022-10-31T15:22:03;99577.44;;;21.02;83.91